sensor_id;sensor_type;location;lat;lon;timestamp;temperature;humidity
13713;DHT22;6928;50.546;7.120;2022-10-19T00:00:45;11.59;93.53
13713;DHT22;6928;50.546;7.120;2022-10-19T00:03:12;11.70;93.17
13713;DHT22;6928;50.546;7.120;2022-10-19T00:05:39;11.87;93.04
13713;DHT22;6928;50.546;7.120;2022-10-19T00:08:07;11.97;92.43
13713;DHT22;6928;50.546;7.120;2022-10-19T00:10:34;11.91;92.20
13713;DHT22;6928;50.546;7.120;2022-10-19T00:13:04;11.81;92.46
13713;DHT22;6928;50.546;7.120;2022-10-19T00:15:31;11.80;92.56
13713;DHT22;6928;50.546;7.120;2022-10-19T00:17:58;11.52;93.34
13713;DHT22;6928;50.546;7.120;2022-10-19T00:20:24;11.74;93.24
13713;DHT22;6928;50.546;7.120;2022-10-19T00:22:51;11.74;92.92
13713;DHT22;6928;50.546;7.120;2022-10-19T00:25:19;11.77;93.19
13713;DHT22;6928;50.546;7.120;2022-10-19T00:27:46;11.63;93.60
13713;DHT22;6928;50.546;7.120;2022-10-19T00:30:13;11.29;94.81
13713;DHT22;6928;50.546;7.120;2022-10-19T00:32:40;11.22;94.41
13713;DHT22;6928;50.546;7.120;2022-10-19T00:35:07;11.15;94.01
13713;DHT22;6928;50.546;7.120;2022-10-19T00:37:34;11.11;94.05
13713;DHT22;6928;50.546;7.120;2022-10-19T00:40:00;11.02;94.14
13713;DHT22;6928;50.546;7.120;2022-10-19T00:42:29;11.18;94.43
13713;DHT22;6928;50.546;7.120;2022-10-19T00:45:12;11.12;94.06
13713;DHT22;6928;50.546;7.120;2022-10-19T00:47:40;11.08;94.48
13713;DHT22;6928;50.546;7.120;2022-10-19T00:50:08;11.09;94.58
13713;DHT22;6928;50.546;7.120;2022-10-19T00:52:36;10.88;94.97
13713;DHT22;6928;50.546;7.120;2022-10-19T00:55:04;10.84;95.58
13713;DHT22;6928;50.546;7.120;2022-10-19T00:57:34;10.87;95.78
13713;DHT22;6928;50.546;7.120;2022-10-19T01:00:04;11.28;95.36
13713;DHT22;6928;50.546;7.120;2022-10-19T01:02:31;11.38;94.74
13713;DHT22;6928;50.546;7.120;2022-10-19T01:04:58;11.35;94.21
13713;DHT22;6928;50.546;7.120;2022-10-19T01:07:27;11.16;93.95
13713;DHT22;6928;50.546;7.120;2022-10-19T01:09:54;11.23;94.47
13713;DHT22;6928;50.546;7.120;2022-10-19T01:12:38;11.43;93.91
13713;DHT22;6928;50.546;7.120;2022-10-19T01:15:20;11.34;93.79
13713;DHT22;6928;50.546;7.120;2022-10-19T01:17:57;11.35;93.96
13713;DHT22;6928;50.546;7.120;2022-10-19T01:21:00;11.39;94.04
13713;DHT22;6928;50.546;7.120;2022-10-19T01:24:12;11.39;94.23
13713;DHT22;6928;50.546;7.120;2022-10-19T01:30:06;11.45;94.66
13713;DHT22;6928;50.546;7.120;2022-10-19T01:32:52;11.40;94.56
13713;DHT22;6928;50.546;7.120;2022-10-19T01:35:27;11.30;94.77
13713;DHT22;6928;50.546;7.120;2022-10-19T01:38:08;11.35;95.10
13713;DHT22;6928;50.546;7.120;2022-10-19T01:40:43;11.12;95.18
13713;DHT22;6928;50.546;7.120;2022-10-19T01:43:20;11.04;95.48
13713;DHT22;6928;50.546;7.120;2022-10-19T01:45:52;11.11;95.59
13713;DHT22;6928;50.546;7.120;2022-10-19T01:48:23;11.11;95.63
13713;DHT22;6928;50.546;7.120;2022-10-19T01:50:57;11.19;95.48
13713;DHT22;6928;50.546;7.120;2022-10-19T01:53:31;11.16;95.46
13713;DHT22;6928;50.546;7.120;2022-10-19T01:56:00;11.16;95.56
13713;DHT22;6928;50.546;7.120;2022-10-19T01:58:31;11.19;95.47
13713;DHT22;6928;50.546;7.120;2022-10-19T02:01:03;11.26;95.48
13713;DHT22;6928;50.546;7.120;2022-10-19T02:03:33;11.35;95.28
13713;DHT22;6928;50.546;7.120;2022-10-19T02:06:01;11.23;95.02
13713;DHT22;6928;50.546;7.120;2022-10-19T02:08:36;11.42;95.03
13713;DHT22;6928;50.546;7.120;2022-10-19T02:11:06;11.32;94.83
13713;DHT22;6928;50.546;7.120;2022-10-19T02:13:33;11.34;95.05
13713;DHT22;6928;50.546;7.120;2022-10-19T02:16:08;11.30;94.88
13713;DHT22;6928;50.546;7.120;2022-10-19T02:18:43;11.25;95.17
13713;DHT22;6928;50.546;7.120;2022-10-19T02:21:11;11.23;94.81
13713;DHT22;6928;50.546;7.120;2022-10-19T02:23:38;11.32;94.53
13713;DHT22;6928;50.546;7.120;2022-10-19T02:26:05;11.38;94.22
13713;DHT22;6928;50.546;7.120;2022-10-19T02:28:33;11.29;94.47
13713;DHT22;6928;50.546;7.120;2022-10-19T02:31:00;11.32;94.64
13713;DHT22;6928;50.546;7.120;2022-10-19T02:33:29;11.25;94.37
13713;DHT22;6928;50.546;7.120;2022-10-19T02:35:56;11.18;94.43
13713;DHT22;6928;50.546;7.120;2022-10-19T02:38:25;11.09;94.43
13713;DHT22;6928;50.546;7.120;2022-10-19T02:41:07;11.16;94.43
13713;DHT22;6928;50.546;7.120;2022-10-19T02:43:38;11.09;94.27
13713;DHT22;6928;50.546;7.120;2022-10-19T02:46:11;11.01;94.22
13713;DHT22;6928;50.546;7.120;2022-10-19T02:48:42;10.92;94.34
13713;DHT22;6928;50.546;7.120;2022-10-19T02:51:29;10.89;94.52
13713;DHT22;6928;50.546;7.120;2022-10-19T02:53:56;10.95;94.52
13713;DHT22;6928;50.546;7.120;2022-10-19T02:56:23;10.73;94.92
13713;DHT22;6928;50.546;7.120;2022-10-19T02:58:50;10.73;95.46
13713;DHT22;6928;50.546;7.120;2022-10-19T03:01:17;10.98;95.15
13713;DHT22;6928;50.546;7.120;2022-10-19T03:03:45;11.04;94.94
13713;DHT22;6928;50.546;7.120;2022-10-19T03:06:12;10.94;94.85
13713;DHT22;6928;50.546;7.120;2022-10-19T03:08:38;10.97;94.91
13713;DHT22;6928;50.546;7.120;2022-10-19T03:11:05;10.89;95.10
13713;DHT22;6928;50.546;7.120;2022-10-19T03:13:32;10.95;95.28
13713;DHT22;6928;50.546;7.120;2022-10-19T03:16:06;11.02;95.34
13713;DHT22;6928;50.546;7.120;2022-10-19T03:18:33;10.97;95.29
13713;DHT22;6928;50.546;7.120;2022-10-19T03:21:09;11.04;95.37
13713;DHT22;6928;50.546;7.120;2022-10-19T03:23:38;11.04;95.32
13713;DHT22;6928;50.546;7.120;2022-10-19T03:26:06;11.07;95.31
13713;DHT22;6928;50.546;7.120;2022-10-19T03:28:33;10.91;95.22
13713;DHT22;6928;50.546;7.120;2022-10-19T03:31:00;10.95;95.59
13713;DHT22;6928;50.546;7.120;2022-10-19T03:33:26;11.09;95.48
13713;DHT22;6928;50.546;7.120;2022-10-19T03:36:19;10.94;95.28
13713;DHT22;6928;50.546;7.120;2022-10-19T03:38:49;10.98;95.41
13713;DHT22;6928;50.546;7.120;2022-10-19T03:41:16;10.95;95.30
13713;DHT22;6928;50.546;7.120;2022-10-19T03:43:43;10.88;95.37
13713;DHT22;6928;50.546;7.120;2022-10-19T03:46:10;10.98;95.55
13713;DHT22;6928;50.546;7.120;2022-10-19T03:48:37;10.59;96.08
13713;DHT22;6928;50.546;7.120;2022-10-19T03:51:06;10.85;96.24
13713;DHT22;6928;50.546;7.120;2022-10-19T03:53:35;10.84;95.97
13713;DHT22;6928;50.546;7.120;2022-10-19T03:56:04;10.81;95.79
13713;DHT22;6928;50.546;7.120;2022-10-19T03:58:33;10.78;95.75
13713;DHT22;6928;50.546;7.120;2022-10-19T04:01:01;10.78;95.77
13713;DHT22;6928;50.546;7.120;2022-10-19T04:03:31;10.88;95.71
13713;DHT22;6928;50.546;7.120;2022-10-19T04:06:02;10.89;95.70
13713;DHT22;6928;50.546;7.120;2022-10-19T04:08:29;10.74;95.68
13713;DHT22;6928;50.546;7.120;2022-10-19T04:11:01;10.73;95.91
13713;DHT22;6928;50.546;7.120;2022-10-19T04:13:29;10.70;95.95
13713;DHT22;6928;50.546;7.120;2022-10-19T04:15:57;10.71;96.05
13713;DHT22;6928;50.546;7.120;2022-10-19T04:18:24;10.78;95.99
13713;DHT22;6928;50.546;7.120;2022-10-19T04:20:55;10.60;96.22
13713;DHT22;6928;50.546;7.120;2022-10-19T04:23:25;10.55;97.14
13713;DHT22;6928;50.546;7.120;2022-10-19T04:25:52;10.43;97.50
13713;DHT22;6928;50.546;7.120;2022-10-19T04:28:20;10.37;97.80
13713;DHT22;6928;50.546;7.120;2022-10-19T04:30:46;10.40;97.96
13713;DHT22;6928;50.546;7.120;2022-10-19T04:33:13;10.25;98.08
13713;DHT22;6928;50.546;7.120;2022-10-19T04:35:40;10.36;98.10
13713;DHT22;6928;50.546;7.120;2022-10-19T04:38:07;10.50;97.95
13713;DHT22;6928;50.546;7.120;2022-10-19T04:40:34;10.34;97.90
13713;DHT22;6928;50.546;7.120;2022-10-19T04:43:03;10.36;97.81
13713;DHT22;6928;50.546;7.120;2022-10-19T04:45:33;10.23;97.60
13713;DHT22;6928;50.546;7.120;2022-10-19T04:48:00;10.23;97.41
13713;DHT22;6928;50.546;7.120;2022-10-19T04:50:27;10.28;97.28
13713;DHT22;6928;50.546;7.120;2022-10-19T04:52:54;10.16;97.30
13713;DHT22;6928;50.546;7.120;2022-10-19T04:55:21;10.20;97.51
13713;DHT22;6928;50.546;7.120;2022-10-19T04:57:47;10.18;97.52
13713;DHT22;6928;50.546;7.120;2022-10-19T05:00:15;10.12;97.37
13713;DHT22;6928;50.546;7.120;2022-10-19T05:02:44;10.15;97.12
13713;DHT22;6928;50.546;7.120;2022-10-19T05:05:12;10.02;97.08
13713;DHT22;6928;50.546;7.120;2022-10-19T05:07:38;10.03;97.13
13713;DHT22;6928;50.546;7.120;2022-10-19T05:10:07;10.09;97.14
13713;DHT22;6928;50.546;7.120;2022-10-19T05:12:35;10.15;97.47
13713;DHT22;6928;50.546;7.120;2022-10-19T05:15:02;10.13;97.34
13713;DHT22;6928;50.546;7.120;2022-10-19T05:17:29;9.99;97.43
13713;DHT22;6928;50.546;7.120;2022-10-19T05:19:57;10.33;97.39
13713;DHT22;6928;50.546;7.120;2022-10-19T05:22:24;10.06;97.10
13713;DHT22;6928;50.546;7.120;2022-10-19T05:24:51;10.09;97.33
13713;DHT22;6928;50.546;7.120;2022-10-19T05:27:18;10.41;97.34
13713;DHT22;6928;50.546;7.120;2022-10-19T05:29:44;10.41;97.16
13713;DHT22;6928;50.546;7.120;2022-10-19T05:32:11;10.44;96.96
13713;DHT22;6928;50.546;7.120;2022-10-19T05:34:38;10.43;96.84
13713;DHT22;6928;50.546;7.120;2022-10-19T05:37:06;10.43;96.81
13713;DHT22;6928;50.546;7.120;2022-10-19T05:39:33;10.53;96.81
13713;DHT22;6928;50.546;7.120;2022-10-19T05:41:59;10.49;96.76
13713;DHT22;6928;50.546;7.120;2022-10-19T05:44:26;10.50;96.71
13713;DHT22;6928;50.546;7.120;2022-10-19T05:46:53;10.50;96.51
13713;DHT22;6928;50.546;7.120;2022-10-19T05:49:21;10.47;96.38
13713;DHT22;6928;50.546;7.120;2022-10-19T05:51:48;10.20;96.22
13713;DHT22;6928;50.546;7.120;2022-10-19T05:54:16;10.29;96.10
13713;DHT22;6928;50.546;7.120;2022-10-19T05:56:44;10.32;95.94
13713;DHT22;6928;50.546;7.120;2022-10-19T05:59:14;10.39;95.60
13713;DHT22;6928;50.546;7.120;2022-10-19T06:01:42;10.40;95.42
13713;DHT22;6928;50.546;7.120;2022-10-19T06:04:09;10.41;95.29
13713;DHT22;6928;50.546;7.120;2022-10-19T06:06:38;10.44;95.22
13713;DHT22;6928;50.546;7.120;2022-10-19T06:09:05;10.32;95.35
13713;DHT22;6928;50.546;7.120;2022-10-19T06:11:36;10.32;95.24
13713;DHT22;6928;50.546;7.120;2022-10-19T06:14:06;10.29;95.17
13713;DHT22;6928;50.546;7.120;2022-10-19T06:16:34;10.29;95.38
13713;DHT22;6928;50.546;7.120;2022-10-19T06:19:01;10.39;95.06
13713;DHT22;6928;50.546;7.120;2022-10-19T06:21:29;10.41;94.88
13713;DHT22;6928;50.546;7.120;2022-10-19T06:23:58;10.50;94.69
13713;DHT22;6928;50.546;7.120;2022-10-19T06:26:27;10.55;94.64
13713;DHT22;6928;50.546;7.120;2022-10-19T06:28:57;10.73;94.37
13713;DHT22;6928;50.546;7.120;2022-10-19T06:31:25;10.64;94.23
13713;DHT22;6928;50.546;7.120;2022-10-19T06:33:52;10.61;94.15
13713;DHT22;6928;50.546;7.120;2022-10-19T06:36:22;10.61;94.37
13713;DHT22;6928;50.546;7.120;2022-10-19T06:38:49;10.53;94.21
13713;DHT22;6928;50.546;7.120;2022-10-19T06:41:18;10.64;93.80
13713;DHT22;6928;50.546;7.120;2022-10-19T06:43:48;10.53;93.70
13713;DHT22;6928;50.546;7.120;2022-10-19T06:46:18;10.51;93.88
13713;DHT22;6928;50.546;7.120;2022-10-19T06:48:52;10.59;94.00
13713;DHT22;6928;50.546;7.120;2022-10-19T06:51:20;10.59;94.11
13713;DHT22;6928;50.546;7.120;2022-10-19T06:53:46;10.67;93.89
13713;DHT22;6928;50.546;7.120;2022-10-19T06:56:13;10.64;93.71
13713;DHT22;6928;50.546;7.120;2022-10-19T06:58:40;10.60;93.91
13713;DHT22;6928;50.546;7.120;2022-10-19T07:01:07;10.60;93.96
13713;DHT22;6928;50.546;7.120;2022-10-19T07:03:37;10.70;93.82
13713;DHT22;6928;50.546;7.120;2022-10-19T07:06:06;10.71;93.76
13713;DHT22;6928;50.546;7.120;2022-10-19T07:08:35;10.59;93.83
13713;DHT22;6928;50.546;7.120;2022-10-19T07:11:05;10.60;94.38
13713;DHT22;6928;50.546;7.120;2022-10-19T07:13:32;10.63;94.05
13713;DHT22;6928;50.546;7.120;2022-10-19T07:16:02;10.61;94.49
13713;DHT22;6928;50.546;7.120;2022-10-19T07:18:31;10.81;94.09
13713;DHT22;6928;50.546;7.120;2022-10-19T07:21:02;10.76;93.86
13713;DHT22;6928;50.546;7.120;2022-10-19T07:23:31;10.87;93.57
13713;DHT22;6928;50.546;7.120;2022-10-19T07:26:04;10.83;93.54
13713;DHT22;6928;50.546;7.120;2022-10-19T07:28:31;10.85;93.81
13713;DHT22;6928;50.546;7.120;2022-10-19T07:31:04;11.02;93.72
13713;DHT22;6928;50.546;7.120;2022-10-19T07:33:31;11.04;93.58
13713;DHT22;6928;50.546;7.120;2022-10-19T07:36:02;11.08;93.58
13713;DHT22;6928;50.546;7.120;2022-10-19T07:38:30;10.77;93.44
13713;DHT22;6928;50.546;7.120;2022-10-19T07:41:02;10.97;93.74
13713;DHT22;6928;50.546;7.120;2022-10-19T07:43:29;11.18;93.32
13713;DHT22;6928;50.546;7.120;2022-10-19T07:45:58;10.92;93.51
13713;DHT22;6928;50.546;7.120;2022-10-19T07:48:24;10.92;93.92
13713;DHT22;6928;50.546;7.120;2022-10-19T07:50:51;11.20;93.60
13713;DHT22;6928;50.546;7.120;2022-10-19T07:53:19;11.26;93.21
13713;DHT22;6928;50.546;7.120;2022-10-19T07:55:46;11.42;93.19
13713;DHT22;6928;50.546;7.120;2022-10-19T07:58:13;11.46;92.87
13713;DHT22;6928;50.546;7.120;2022-10-19T08:00:42;11.60;93.30
13713;DHT22;6928;50.546;7.120;2022-10-19T08:03:09;11.40;93.17
13713;DHT22;6928;50.546;7.120;2022-10-19T08:05:36;11.62;92.85
13713;DHT22;6928;50.546;7.120;2022-10-19T08:08:04;11.74;92.70
13713;DHT22;6928;50.546;7.120;2022-10-19T08:10:32;11.71;92.61
13713;DHT22;6928;50.546;7.120;2022-10-19T08:12:59;11.88;92.42
13713;DHT22;6928;50.546;7.120;2022-10-19T08:15:28;11.97;92.42
13713;DHT22;6928;50.546;7.120;2022-10-19T08:17:55;11.95;91.91
13713;DHT22;6928;50.546;7.120;2022-10-19T08:20:22;11.81;91.46
13713;DHT22;6928;50.546;7.120;2022-10-19T08:22:49;11.99;91.88
13713;DHT22;6928;50.546;7.120;2022-10-19T08:25:16;12.02;91.95
13713;DHT22;6928;50.546;7.120;2022-10-19T08:27:44;12.17;91.83
13713;DHT22;6928;50.546;7.120;2022-10-19T08:30:11;12.08;91.34
13713;DHT22;6928;50.546;7.120;2022-10-19T08:32:38;12.22;91.27
13713;DHT22;6928;50.546;7.120;2022-10-19T08:35:05;12.35;90.69
13713;DHT22;6928;50.546;7.120;2022-10-19T08:37:32;12.48;90.25
13713;DHT22;6928;50.546;7.120;2022-10-19T08:39:59;12.39;90.29
13713;DHT22;6928;50.546;7.120;2022-10-19T08:42:33;12.38;90.51
13713;DHT22;6928;50.546;7.120;2022-10-19T08:45:24;12.39;90.13
13713;DHT22;6928;50.546;7.120;2022-10-19T08:48:31;12.49;90.04
13713;DHT22;6928;50.546;7.120;2022-10-19T08:51:01;12.75;89.77
13713;DHT22;6928;50.546;7.120;2022-10-19T08:53:38;12.86;88.94
13713;DHT22;6928;50.546;7.120;2022-10-19T08:56:17;13.06;87.47
13713;DHT22;6928;50.546;7.120;2022-10-19T08:58:57;13.14;87.26
13713;DHT22;6928;50.546;7.120;2022-10-19T09:01:36;13.20;86.29
13713;DHT22;6928;50.546;7.120;2022-10-19T09:04:10;13.06;86.18
13713;DHT22;6928;50.546;7.120;2022-10-19T09:06:48;13.42;85.69
13713;DHT22;6928;50.546;7.120;2022-10-19T09:09:18;13.23;85.35
13713;DHT22;6928;50.546;7.120;2022-10-19T09:11:49;13.39;85.43
13713;DHT22;6928;50.546;7.120;2022-10-19T09:14:21;13.52;84.99
13713;DHT22;6928;50.546;7.120;2022-10-19T09:17:01;13.63;83.97
13713;DHT22;6928;50.546;7.120;2022-10-19T09:19:29;13.67;83.45
13713;DHT22;6928;50.546;7.120;2022-10-19T09:21:59;13.59;83.77
13713;DHT22;6928;50.546;7.120;2022-10-19T09:24:31;13.67;83.90
13713;DHT22;6928;50.546;7.120;2022-10-19T09:27:01;13.82;83.43
13713;DHT22;6928;50.546;7.120;2022-10-19T09:29:35;13.86;82.98
13713;DHT22;6928;50.546;7.120;2022-10-19T09:32:11;14.12;82.56
13713;DHT22;6928;50.546;7.120;2022-10-19T09:34:41;14.13;82.50
13713;DHT22;6928;50.546;7.120;2022-10-19T09:37:10;13.99;82.19
13713;DHT22;6928;50.546;7.120;2022-10-19T09:39:38;14.10;82.54
13713;DHT22;6928;50.546;7.120;2022-10-19T09:42:19;14.37;81.24
13713;DHT22;6928;50.546;7.120;2022-10-19T09:44:48;14.41;81.37
13713;DHT22;6928;50.546;7.120;2022-10-19T09:47:35;14.31;81.08
13713;DHT22;6928;50.546;7.120;2022-10-19T09:50:17;14.12;81.05
13713;DHT22;6928;50.546;7.120;2022-10-19T09:52:45;14.50;79.87
13713;DHT22;6928;50.546;7.120;2022-10-19T09:55:27;14.44;80.84
13713;DHT22;6928;50.546;7.120;2022-10-19T09:58:02;14.64;80.02
13713;DHT22;6928;50.546;7.120;2022-10-19T10:00:38;14.65;79.26
13713;DHT22;6928;50.546;7.120;2022-10-19T10:03:23;15.13;79.15
13713;DHT22;6928;50.546;7.120;2022-10-19T10:05:51;14.48;79.67
13713;DHT22;6928;50.546;7.120;2022-10-19T10:08:21;14.72;79.47
13713;DHT22;6928;50.546;7.120;2022-10-19T10:10:57;14.99;78.64
13713;DHT22;6928;50.546;7.120;2022-10-19T10:13:26;14.58;79.07
13713;DHT22;6928;50.546;7.120;2022-10-19T10:15:57;14.91;79.24
13713;DHT22;6928;50.546;7.120;2022-10-19T10:18:28;14.71;79.37
13713;DHT22;6928;50.546;7.120;2022-10-19T10:21:00;14.91;78.46
13713;DHT22;6928;50.546;7.120;2022-10-19T10:23:30;14.61;78.96
13713;DHT22;6928;50.546;7.120;2022-10-19T10:26:01;14.83;79.30
13713;DHT22;6928;50.546;7.120;2022-10-19T10:28:29;15.02;78.81
13713;DHT22;6928;50.546;7.120;2022-10-19T10:31:01;15.22;78.21
13713;DHT22;6928;50.546;7.120;2022-10-19T10:33:35;15.32;77.37
13713;DHT22;6928;50.546;7.120;2022-10-19T10:36:06;15.19;78.03
13713;DHT22;6928;50.546;7.120;2022-10-19T10:38:37;15.22;78.45
13713;DHT22;6928;50.546;7.120;2022-10-19T10:41:11;15.13;77.72
13713;DHT22;6928;50.546;7.120;2022-10-19T10:43:52;15.57;76.87
13713;DHT22;6928;50.546;7.120;2022-10-19T10:46:24;15.55;76.90
13713;DHT22;6928;50.546;7.120;2022-10-19T10:48:55;15.72;76.28
13713;DHT22;6928;50.546;7.120;2022-10-19T10:51:32;15.75;76.42
13713;DHT22;6928;50.546;7.120;2022-10-19T10:54:20;15.47;76.21
13713;DHT22;6928;50.546;7.120;2022-10-19T10:57:10;15.65;75.95
13713;DHT22;6928;50.546;7.120;2022-10-19T10:59:49;15.64;76.18
13713;DHT22;6928;50.546;7.120;2022-10-19T11:02:29;15.53;76.75
13713;DHT22;6928;50.546;7.120;2022-10-19T11:05:05;15.86;76.11
13713;DHT22;6928;50.546;7.120;2022-10-19T11:07:33;15.44;76.95
13713;DHT22;6928;50.546;7.120;2022-10-19T11:10:10;15.54;77.75
13713;DHT22;6928;50.546;7.120;2022-10-19T11:12:42;15.61;77.71
13713;DHT22;6928;50.546;7.120;2022-10-19T11:15:17;15.70;78.21
13713;DHT22;6928;50.546;7.120;2022-10-19T11:17:59;15.30;78.46
13713;DHT22;6928;50.546;7.120;2022-10-19T11:20:31;15.43;78.39
13713;DHT22;6928;50.546;7.120;2022-10-19T11:23:09;15.33;79.00
13713;DHT22;6928;50.546;7.120;2022-10-19T11:25:51;15.17;79.31
13713;DHT22;6928;50.546;7.120;2022-10-19T11:28:38;15.29;79.32
13713;DHT22;6928;50.546;7.120;2022-10-19T11:31:16;15.33;79.07
13713;DHT22;6928;50.546;7.120;2022-10-19T11:33:55;15.41;78.13
13713;DHT22;6928;50.546;7.120;2022-10-19T11:36:41;15.34;78.04
13713;DHT22;6928;50.546;7.120;2022-10-19T11:39:28;15.36;78.41
13713;DHT22;6928;50.546;7.120;2022-10-19T11:42:02;15.02;79.34
13713;DHT22;6928;50.546;7.120;2022-10-19T11:44:44;15.32;78.60
13713;DHT22;6928;50.546;7.120;2022-10-19T11:47:37;14.98;78.94
13713;DHT22;6928;50.546;7.120;2022-10-19T11:50:24;14.96;79.16
13713;DHT22;6928;50.546;7.120;2022-10-19T11:53:04;15.22;78.77
13713;DHT22;6928;50.546;7.120;2022-10-19T11:55:40;15.39;78.16
13713;DHT22;6928;50.546;7.120;2022-10-19T11:58:28;15.33;78.56
13713;DHT22;6928;50.546;7.120;2022-10-19T12:00:59;15.32;77.66
13713;DHT22;6928;50.546;7.120;2022-10-19T12:03:59;15.37;77.42
13713;DHT22;6928;50.546;7.120;2022-10-19T12:06:38;15.37;77.65
13713;DHT22;6928;50.546;7.120;2022-10-19T12:09:27;15.60;77.31
13713;DHT22;6928;50.546;7.120;2022-10-19T12:12:13;15.39;76.95
13713;DHT22;6928;50.546;7.120;2022-10-19T12:14:44;15.49;77.07
13713;DHT22;6928;50.546;7.120;2022-10-19T12:17:17;15.67;76.46
13713;DHT22;6928;50.546;7.120;2022-10-19T12:19:49;15.61;76.93
13713;DHT22;6928;50.546;7.120;2022-10-19T12:22:24;15.82;76.48
13713;DHT22;6928;50.546;7.120;2022-10-19T12:24:56;15.89;76.12
13713;DHT22;6928;50.546;7.120;2022-10-19T12:27:31;15.58;76.33
13713;DHT22;6928;50.546;7.120;2022-10-19T12:30:05;16.04;75.89
13713;DHT22;6928;50.546;7.120;2022-10-19T12:32:42;15.82;76.53
13713;DHT22;6928;50.546;7.120;2022-10-19T12:35:30;15.99;76.00
13713;DHT22;6928;50.546;7.120;2022-10-19T12:38:05;16.22;75.56
13713;DHT22;6928;50.546;7.120;2022-10-19T12:40:38;15.92;76.06
13713;DHT22;6928;50.546;7.120;2022-10-19T12:43:12;15.91;76.12
13713;DHT22;6928;50.546;7.120;2022-10-19T12:45:41;16.11;75.66
13713;DHT22;6928;50.546;7.120;2022-10-19T12:48:21;16.23;76.02
13713;DHT22;6928;50.546;7.120;2022-10-19T12:51:22;16.04;75.32
13713;DHT22;6928;50.546;7.120;2022-10-19T12:53:49;16.11;76.15
13713;DHT22;6928;50.546;7.120;2022-10-19T12:56:22;16.34;76.20
13713;DHT22;6928;50.546;7.120;2022-10-19T12:58:54;16.49;74.78
13713;DHT22;6928;50.546;7.120;2022-10-19T13:01:25;16.43;74.93
13713;DHT22;6928;50.546;7.120;2022-10-19T13:04:07;16.40;75.18
13713;DHT22;6928;50.546;7.120;2022-10-19T13:06:37;16.54;74.53
13713;DHT22;6928;50.546;7.120;2022-10-19T13:09:08;16.25;74.91
13713;DHT22;6928;50.546;7.120;2022-10-19T13:12:43;16.56;74.80
13713;DHT22;6928;50.546;7.120;2022-10-19T13:15:56;16.42;74.93
13713;DHT22;6928;50.546;7.120;2022-10-19T13:19:18;16.61;74.64
13713;DHT22;6928;50.546;7.120;2022-10-19T13:21:49;16.77;74.54
13713;DHT22;6928;50.546;7.120;2022-10-19T13:24:35;16.51;74.59
13713;DHT22;6928;50.546;7.120;2022-10-19T13:27:36;16.68;74.87
13713;DHT22;6928;50.546;7.120;2022-10-19T13:30:58;16.53;74.70
13713;DHT22;6928;50.546;7.120;2022-10-19T13:33:53;16.68;74.70
13713;DHT22;6928;50.546;7.120;2022-10-19T13:36:21;16.67;74.33
13713;DHT22;6928;50.546;7.120;2022-10-19T13:39:13;16.49;74.84
13713;DHT22;6928;50.546;7.120;2022-10-19T13:41:49;16.65;74.77
13713;DHT22;6928;50.546;7.120;2022-10-19T13:44:23;16.71;74.54
13713;DHT22;6928;50.546;7.120;2022-10-19T13:50:25;16.59;73.83
13713;DHT22;6928;50.546;7.120;2022-10-19T13:53:22;16.44;74.36
13713;DHT22;6928;50.546;7.120;2022-10-19T13:56:18;16.42;74.58
13713;DHT22;6928;50.546;7.120;2022-10-19T13:59:40;16.54;74.53
13713;DHT22;6928;50.546;7.120;2022-10-19T14:02:36;16.60;74.81
13713;DHT22;6928;50.546;7.120;2022-10-19T14:05:24;16.51;74.92
13713;DHT22;6928;50.546;7.120;2022-10-19T14:08:06;16.44;74.94
13713;DHT22;6928;50.546;7.120;2022-10-19T14:10:34;16.50;74.90
13713;DHT22;6928;50.546;7.120;2022-10-19T14:13:04;16.37;75.02
13713;DHT22;6928;50.546;7.120;2022-10-19T14:15:33;16.37;74.59
13713;DHT22;6928;50.546;7.120;2022-10-19T14:18:01;16.53;74.97
13713;DHT22;6928;50.546;7.120;2022-10-19T14:20:31;16.36;75.26
13713;DHT22;6928;50.546;7.120;2022-10-19T14:23:17;16.46;75.44
13713;DHT22;6928;50.546;7.120;2022-10-19T14:25:49;16.51;74.66
13713;DHT22;6928;50.546;7.120;2022-10-19T14:28:16;16.49;74.60
13713;DHT22;6928;50.546;7.120;2022-10-19T14:30:43;16.42;74.71
13713;DHT22;6928;50.546;7.120;2022-10-19T14:33:14;16.37;74.87
13713;DHT22;6928;50.546;7.120;2022-10-19T14:35:48;16.40;74.83
13713;DHT22;6928;50.546;7.120;2022-10-19T14:38:19;16.37;75.05
13713;DHT22;6928;50.546;7.120;2022-10-19T14:40:47;16.32;75.02
13713;DHT22;6928;50.546;7.120;2022-10-19T14:43:19;16.37;74.71
13713;DHT22;6928;50.546;7.120;2022-10-19T14:46:13;16.47;74.92
13713;DHT22;6928;50.546;7.120;2022-10-19T14:48:43;16.44;75.03
13713;DHT22;6928;50.546;7.120;2022-10-19T14:51:29;16.50;74.14
13713;DHT22;6928;50.546;7.120;2022-10-19T14:54:02;16.50;74.46
13713;DHT22;6928;50.546;7.120;2022-10-19T14:56:34;16.65;73.57
13713;DHT22;6928;50.546;7.120;2022-10-19T14:59:05;16.60;73.60
13713;DHT22;6928;50.546;7.120;2022-10-19T15:01:33;16.67;72.63
13713;DHT22;6928;50.546;7.120;2022-10-19T15:04:02;16.70;72.77
13713;DHT22;6928;50.546;7.120;2022-10-19T15:06:31;16.77;72.36
13713;DHT22;6928;50.546;7.120;2022-10-19T15:09:03;16.88;72.26
13713;DHT22;6928;50.546;7.120;2022-10-19T15:11:36;16.74;72.73
13713;DHT22;6928;50.546;7.120;2022-10-19T15:14:08;16.70;72.06
13713;DHT22;6928;50.546;7.120;2022-10-19T15:16:43;16.63;72.66
13713;DHT22;6928;50.546;7.120;2022-10-19T15:19:18;16.39;72.88
13713;DHT22;6928;50.546;7.120;2022-10-19T15:22:10;16.61;72.36
13713;DHT22;6928;50.546;7.120;2022-10-19T15:24:39;16.59;72.96
13713;DHT22;6928;50.546;7.120;2022-10-19T15:27:15;16.37;72.93
13713;DHT22;6928;50.546;7.120;2022-10-19T15:29:54;16.33;73.37
13713;DHT22;6928;50.546;7.120;2022-10-19T15:32:23;16.37;73.59
13713;DHT22;6928;50.546;7.120;2022-10-19T15:34:52;16.30;73.82
13713;DHT22;6928;50.546;7.120;2022-10-19T15:37:21;16.28;74.51
13713;DHT22;6928;50.546;7.120;2022-10-19T15:39:50;16.22;74.44
13713;DHT22;6928;50.546;7.120;2022-10-19T15:42:32;16.05;75.10
13713;DHT22;6928;50.546;7.120;2022-10-19T15:44:59;15.99;75.23
13713;DHT22;6928;50.546;7.120;2022-10-19T15:47:26;15.92;75.68
13713;DHT22;6928;50.546;7.120;2022-10-19T15:49:58;15.95;75.96
13713;DHT22;6928;50.546;7.120;2022-10-19T15:52:27;16.02;75.89
13713;DHT22;6928;50.546;7.120;2022-10-19T15:54:57;15.86;76.07
13713;DHT22;6928;50.546;7.120;2022-10-19T15:57:28;15.82;76.53
13713;DHT22;6928;50.546;7.120;2022-10-19T15:59:57;15.86;76.38
13713;DHT22;6928;50.546;7.120;2022-10-19T16:02:25;15.70;77.19
13713;DHT22;6928;50.546;7.120;2022-10-19T16:04:52;15.64;77.61
13713;DHT22;6928;50.546;7.120;2022-10-19T16:07:25;15.70;77.45
13713;DHT22;6928;50.546;7.120;2022-10-19T16:09:53;15.65;77.90
13713;DHT22;6928;50.546;7.120;2022-10-19T16:12:23;15.70;77.48
13713;DHT22;6928;50.546;7.120;2022-10-19T16:14:53;15.57;78.24
13713;DHT22;6928;50.546;7.120;2022-10-19T16:17:20;15.49;78.43
13713;DHT22;6928;50.546;7.120;2022-10-19T16:19:47;15.53;78.59
13713;DHT22;6928;50.546;7.120;2022-10-19T16:22:15;15.49;78.60
13713;DHT22;6928;50.546;7.120;2022-10-19T16:24:43;15.53;78.54
13713;DHT22;6928;50.546;7.120;2022-10-19T16:27:10;15.36;78.89